Wetterdaten: aktuell Dienstag, 23.07.2024 21:00
Datum Zeit Temp. A. Feuchte A. Luftdruck Regen Wind Richtung Richtung Sonnenschein ET UV Solar Taupunkt Windchill Windben
23.07.2024 21:00 17,9 C 87 % 1015,5 hPa 0,4 l/m 1,3 km/h (1 Bft) S 184 0 min 0,025 mm 0,0 UV-I 0 W/m 15,7 C 17,9 C 6,4 km/h (2 Bft)
23.07.2024 20:00 19,1 C 77 % 1015,7 hPa 0,8 l/m 1,5 km/h (1 Bft) N-NW 332 0 min 0,127 mm 0,0 UV-I 0 W/m 15,0 C 19,1 C 4,8 km/h (1 Bft)
23.07.2024 19:00 23,3 C 61 % 1014,5 hPa 0,0 l/m 11,7 km/h (2 Bft) N 349 0 min 0,127 mm 0,0 UV-I 47 W/m 15,3 C 21,9 C 29,0 km/h (5 Bft)
23.07.2024 18:00 27,6 C 46 % 1013,3 hPa 0,0 l/m 2,8 km/h (1 Bft) N 351 30 min 0,229 mm 0,6 UV-I 388 W/m 14,9 C 27,6 C 4,8 km/h (1 Bft)
23.07.2024 17:00 27,3 C 47 % 1013,6 hPa 0,0 l/m 0,5 km/h (0 Bft) SW 221 0 min 0,152 mm 0,8 UV-I 181 W/m 15,0 C 27,3 C 3,2 km/h (1 Bft)
23.07.2024 16:00 28,1 C 46 % 1014,2 hPa 0,0 l/m 3,8 km/h (1 Bft) W 274 35 min 0,457 mm 1,6 UV-I 214 W/m 15,4 C 28,1 C 11,3 km/h (2 Bft)
23.07.2024 15:00 28,3 C 46 % 1014,7 hPa 0,0 l/m 5,9 km/h (2 Bft) W-SW 255 25 min 0,559 mm 3,7 UV-I 810 W/m 15,6 C 28,3 C 12,9 km/h (3 Bft)
23.07.2024 13:55 27,0 C 47 % 1015,3 hPa 0,0 l/m 6,9 km/h (2 Bft) N-NO 22 15 min 0,457 mm 1,6 UV-I 211 W/m 14,7 C 26,9 C 8,0 km/h (2 Bft)
23.07.2024 12:55 26,9 C 48 % 1015,7 hPa 0,0 l/m 2,6 km/h (1 Bft) W-SW 245 30 min 0,406 mm 5,0 UV-I 246 W/m 14,9 C 26,9 C 3,2 km/h (1 Bft)
23.07.2024 11:55 26,8 C 47 % 1016,2 hPa 0,0 l/m 4,3 km/h (1 Bft) SO 140 45 min 0,254 mm 2,9 UV-I 352 W/m 14,5 C 26,8 C 9,7 km/h (2 Bft)
23.07.2024 10:55 25,3 C 55 % 1016,8 hPa 0,0 l/m 2,2 km/h (1 Bft) S-SO 163 10 min 0,127 mm 3,5 UV-I 700 W/m 15,6 C 25,3 C 8,0 km/h (2 Bft)
23.07.2024 09:55 21,4 C 68 % 1017,5 hPa 0,0 l/m 0,7 km/h (0 Bft) SO 136 0 min 0,102 mm 1,6 UV-I 104 W/m 15,2 C 21,4 C 3,2 km/h (1 Bft)
23.07.2024 08:55 19,6 C 72 % 1017,8 hPa 0,0 l/m 1,6 km/h (1 Bft) S-SO 157 0 min 0,051 mm 1,1 UV-I 221 W/m 14,4 C 19,6 C 6,4 km/h (2 Bft)
23.07.2024 07:55 18,6 C 75 % 1018,0 hPa 0,0 l/m 0,2 km/h (0 Bft) S-SO 165 0 min 0,001 mm 0,0 UV-I 113 W/m 14,1 C 18,6 C 3,2 km/h (1 Bft)
23.07.2024 06:50 17,6 C 76 % 1018,0 hPa 0,0 l/m 0,8 km/h (0 Bft) S-SO 159 0 min 0,000 mm 0,0 UV-I 67 W/m 13,3 C 17,6 C 4,8 km/h (1 Bft)
23.07.2024 05:50 17,3 C 76 % 1018,1 hPa 0,0 l/m 0,0 km/h (0 Bft) S-SO 162 0 min 0,000 mm 0,0 UV-I 11 W/m 13,0 C 17,3 C 0,0 km/h (0 Bft)
23.07.2024 04:45 17,8 C 75 % 1018,0 hPa 0,0 l/m 0,0 km/h (0 Bft) N 0 0 min 0,000 mm 0,0 UV-I 0 W/m 13,3 C 17,8 C 0,0 km/h (0 Bft)
23.07.2024 03:45 17,9 C 75 % 1018,3 hPa 0,0 l/m 0,0 km/h (0 Bft) N 0 0 min 0,000 mm 0,0 UV-I 0 W/m 13,4 C 17,9 C 0,0 km/h (0 Bft)
23.07.2024 02:45 17,9 C 75 % 1018,3 hPa 0,0 l/m 0,0 km/h (0 Bft) N 0 0 min 0,025 mm 0,0 UV-I 0 W/m 13,4 C 17,9 C 0,0 km/h (0 Bft)
23.07.2024 01:45 17,7 C 76 % 1018,4 hPa 0,0 l/m 0,0 km/h (0 Bft) N 0 0 min 0,025 mm 0,0 UV-I 0 W/m 13,4 C 17,7 C 0,0 km/h (0 Bft)
23.07.2024 00:45 17,2 C 77 % 1018,5 hPa 0,0 l/m 0,0 km/h (0 Bft) N 0 0 min 0,025 mm 0,0 UV-I 0 W/m 13,1 C 17,2 C 0,0 km/h (0 Bft)
23.07.2024 00:00 17,5 C 73 % 1018,4 hPa 0,0 l/m 0,0 km/h (0 Bft) N 0 0 min 0,025 mm 0,0 UV-I 0 W/m 12,6 C 17,5 C 0,0 km/h (0 Bft)
_ Min-Zeit 01:00 15:35 17:45 - 00:00 - - - - - - 00:00 01:05 00:00
Minimum _ 17,1 C 44 % 1013,3 hPa - 0,0 km/h (0 Bft) - - - - - - 12,6 C 17,1 C 0,0 km/h (0 Bft)
_ Max-Zeit 17:35 20:50 00:15 20:00 19:00 - - 10:50 15:00 12:20 13:00 15:30 17:35 19:00
Maximum _ 28,8 C 87 % 1018,6 hPa 0,4 l/m 11,7 km/h
N (2 Bft)
- - 5 min 0,559 mm 5,1 UV-I 976 W/m 16,2 C 28,8 C 29,0 km/h
NW (5 Bft)
Durchschnitt _ 22,0 C 64 % 1016,5 hPa #1,2 l/m 2,0 km/h (1 Bft) S-SO - #3:10 h #3,200 mm 2,2 UV-I 262 W/m 14,5 C 21,9 C 5,3 km/h (1 Bft)